Terminal Aerodrome Forecast
Issued by NWS

Home | Current Version | Previous Version | Text Only | Print | Product List | Glossary On
Versions: 1 2 3 4 5 6 7 8 9 10 11 12 13 14 15 16 17 18 19 20 21
000
FTUS41 KILN 251800 AAA
TAFLCK
TAF AMD
KLCK 251805Z 2518/2618 09005KT 4SM -RA BR SCT008 OVC035
      TEMPO 2518/2520 2SM -RASN BR BKN018 OVC030
     FM252000 06007KT 4SM -RA BR OVC025
      TEMPO 2521/2523 1SM -SNRA BR OVC012
     FM252300 02012KT 1SM -SN OVC009
      TEMPO 2523/2603 1/2SM SN
     FM260300 02013G21KT 2SM -SN OVC015
      TEMPO 2603/2607 1SM -SN OVC009
     FM261000 36014KT 5SM -SN OVC015
     FM261300 34011KT P6SM OVC012=

USA.gov is the U.S. government's official web portal to all federal, state and local government web resources and services.